Seitenverwaltung

Live am Platz

Die Bilder unserer Webcams werden alle 5 Minuten aktualisiert.

Sonnenaufgang:

04:14 UTC / 06:14 Lokal

Sonnenuntergang:

18:42 UTC / 20:42 Lokal

METAR (12.08.2020 10:20 UTC):

EDNY 121120Z 13003KT 060V210 CAVOK 29/18 Q1017
VFR

TAF (12.08.2020 04:00 UTC):

TAF EDNY 120500Z 1206/1306 03003KT CAVOK TEMPO 1211/1216 23005KT PROB30 TEMPO 1223/1303 SHRA SCT055CB

Alle Angaben unverbindlich und ohne Gewähr. Zeiten genähert.

Für den Verkehrslandeplatz Konstanz werden keine offiziellen Wetterinformationen ausgegeben. Daher werden zur Orientierung Daten des nahegelegenen Flughafens Friedrichshafen dargestellt.